Time;durP1;ratioP1;P1;durP2;ratioP2;P2;SDS_P1;SDS_P2;PMS_P1;PMS_P2;Temp;Humidity;BMP_temperature;BMP_pressure;BME280_temperature;BME280_humidity;BME280_pressure;Samples;Min_cycle;Max_cycle;Signal;HPM_P1;HPM_P2
2022/08/27 00:00:27;;;;;;;7.90;2.70;;;17.20;99.90;;;;;;4993145;28;20046;-64
2022/08/27 00:02:52;;;;;;;6.15;2.95;;;17.10;99.90;;;;;;4982043;28;20489;-64
2022/08/27 00:05:19;;;;;;;5.18;2.58;;;17.10;99.90;;;;;;5028103;28;20129;-65
2022/08/27 00:07:45;;;;;;;5.38;2.67;;;17.00;99.90;;;;;;4983418;28;20042;-66
2022/08/27 00:10:15;;;;;;;5.32;2.65;;;17.00;99.90;;;;;;4977004;28;20038;-64
2022/08/27 00:12:40;;;;;;;6.68;2.83;;;16.90;99.90;;;;;;4979514;28;20039;-65
2022/08/27 00:15:07;;;;;;;5.82;2.72;;;16.90;99.90;;;;;;5042330;28;20050;-65
2022/08/27 00:17:35;;;;;;;4.95;2.53;;;16.90;99.90;;;;;;5027237;28;20393;-64
2022/08/27 00:20:02;;;;;;;5.32;3.00;;;16.80;99.90;;;;;;4988840;28;20046;-64
2022/08/27 00:22:28;;;;;;;6.20;2.75;;;16.80;99.90;;;;;;4985804;28;20046;-64
2022/08/27 00:24:54;;;;;;;5.63;2.38;;;16.80;99.90;;;;;;5031690;28;20045;-64
2022/08/27 00:27:19;;;;;;;5.22;2.80;;;16.70;99.90;;;;;;4968137;28;20050;-64
2022/08/27 00:29:46;;;;;;;6.78;2.83;;;16.70;99.90;;;;;;4986504;28;20058;-64
2022/08/27 00:32:12;;;;;;;6.35;2.78;;;16.70;99.90;;;;;;4978025;28;20037;-64
2022/08/27 00:34:38;;;;;;;5.22;2.50;;;16.60;99.90;;;;;;5053779;28;20456;-64
2022/08/27 00:37:05;;;;;;;5.82;3.28;;;16.60;99.90;;;;;;4987886;28;20416;-64
2022/08/27 00:39:31;;;;;;;7.10;2.60;;;16.60;99.90;;;;;;4985352;28;20046;-65
2022/08/27 00:41:59;;;;;;;5.20;2.88;;;16.50;99.90;;;;;;4986100;28;20118;-65
2022/08/27 00:44:26;;;;;;;6.07;2.92;;;16.50;99.90;;;;;;4985675;28;20300;-65
2022/08/27 00:46:57;;;;;;;5.60;2.75;;;16.40;99.90;;;;;;5019761;28;20066;-64
2022/08/27 00:49:33;;;;;;;6.82;2.60;;;16.40;99.90;;;;;;4986012;28;20125;-64
2022/08/27 00:52:15;;;;;;;5.68;2.95;;;16.40;99.90;;;;;;4982471;28;20058;-64
2022/08/27 00:54:41;;;;;;;6.25;3.05;;;16.30;99.90;;;;;;4970334;28;20265;-65
2022/08/27 00:57:07;;;;;;;5.72;2.80;;;16.30;99.90;;;;;;4986607;28;20256;-64
2022/08/27 00:59:33;;;;;;;5.80;2.92;;;16.30;99.90;;;;;;5028836;28;20121;-64
2022/08/27 01:02:18;;;;;;;4.50;2.90;;;16.20;99.90;;;;;;4980779;28;20045;-64
2022/08/27 01:04:57;;;;;;;5.85;3.10;;;16.20;99.90;;;;;;4983702;28;20505;-64
2022/08/27 01:07:25;;;;;;;5.40;2.90;;;16.10;99.90;;;;;;4987983;28;20042;-64
2022/08/27 01:09:54;;;;;;;5.50;2.83;;;16.10;99.90;;;;;;5025406;28;20045;-64
2022/08/27 01:12:20;;;;;;;6.03;2.55;;;16.10;99.90;;;;;;4977052;28;20042;-64
2022/08/27 01:14:46;;;;;;;6.70;3.10;;;16.00;99.90;;;;;;4981611;28;20054;-64
2022/08/27 01:17:13;;;;;;;7.25;3.00;;;16.00;99.90;;;;;;4980917;28;20045;-64
2022/08/27 01:19:53;;;;;;;7.70;3.08;;;15.90;99.90;;;;;;4986105;28;20038;-65
2022/08/27 01:22:59;;;;;;;6.80;3.10;;;15.90;99.90;;;;;;4985755;28;20038;-65
2022/08/27 01:25:26;;;;;;;7.72;3.00;;;15.90;99.90;;;;;;4983314;28;20047;-65
2022/08/27 01:27:55;;;;;;;5.28;2.75;;;15.90;99.90;;;;;;4988976;28;20035;-64
2022/08/27 01:30:22;;;;;;;5.93;3.00;;;15.90;99.90;;;;;;4986111;28;20167;-65
2022/08/27 01:32:49;;;;;;;7.53;2.92;;;15.80;99.90;;;;;;4972456;28;20047;-64
2022/08/27 01:35:16;;;;;;;5.55;2.97;;;15.80;99.90;;;;;;5039973;28;20050;-65
2022/08/27 01:37:44;;;;;;;4.43;2.67;;;15.70;99.90;;;;;;5024260;28;20031;-65
2022/08/27 01:40:10;;;;;;;6.60;2.72;;;15.70;99.90;;;;;;4975305;28;20099;-64
2022/08/27 01:42:41;;;;;;;5.70;2.72;;;15.70;99.90;;;;;;4982481;28;20121;-65
2022/08/27 01:45:15;;;;;;;7.40;2.97;;;15.60;99.90;;;;;;4983643;28;20164;-64
2022/08/27 01:47:41;;;;;;;7.03;2.92;;;15.60;99.90;;;;;;4976399;28;20042;-64
2022/08/27 01:50:20;;;;;;;7.68;3.13;;;15.60;99.90;;;;;;4979404;28;20042;-65
2022/08/27 01:52:46;;;;;;;6.78;2.75;;;15.60;99.90;;;;;;4978364;28;20125;-65
2022/08/27 01:55:15;;;;;;;7.53;3.10;;;15.50;99.90;;;;;;4986201;28;20044;-64
2022/08/27 01:57:42;;;;;;;6.10;3.22;;;15.50;99.90;;;;;;4997563;28;20050;-65
2022/08/27 02:00:30;;;;;;;5.20;3.00;;;15.50;99.90;;;;;;5005216;28;20049;-65
2022/08/27 02:02:57;;;;;;;4.60;2.65;;;15.50;99.90;;;;;;4975301;28;20397;-64
2022/08/27 02:05:24;;;;;;;5.47;3.08;;;15.50;99.90;;;;;;4979708;28;20041;-65
2022/08/27 02:07:50;;;;;;;6.88;3.13;;;15.40;99.90;;;;;;4975203;28;20046;-64
2022/08/27 02:10:21;;;;;;;22.33;4.20;;;15.40;99.90;;;;;;5015401;28;20367;-64
2022/08/27 02:12:48;;;;;;;13.77;3.93;;;15.40;99.90;;;;;;5002203;28;20028;-64
2022/08/27 02:15:14;;;;;;;10.95;4.07;;;15.30;99.90;;;;;;4984704;28;20297;-65
2022/08/27 02:17:40;;;;;;;9.38;3.75;;;15.30;99.90;;;;;;4988934;28;20050;-64
2022/08/27 02:20:08;;;;;;;8.65;3.30;;;15.30;99.90;;;;;;5019126;28;20396;-65
2022/08/27 02:22:34;;;;;;;8.70;3.65;;;15.30;99.90;;;;;;4998691;28;20057;-64
2022/08/27 02:25:00;;;;;;;7.75;3.67;;;15.30;99.90;;;;;;4975982;28;20052;-65
2022/08/27 02:27:26;;;;;;;7.30;3.35;;;15.30;99.90;;;;;;4975712;28;20091;-65
2022/08/27 02:29:53;;;;;;;6.70;3.45;;;15.30;99.90;;;;;;4986354;28;20039;-65
2022/08/27 02:32:19;;;;;;;5.30;3.75;;;15.20;99.90;;;;;;4988551;28;20492;-64
2022/08/27 02:34:44;;;;;;;6.13;3.17;;;15.20;99.90;;;;;;4994559;28;20038;-64
2022/08/27 02:37:10;;;;;;;5.63;3.55;;;15.20;99.90;;;;;;4990384;28;20031;-65
2022/08/27 02:39:36;;;;;;;6.18;3.75;;;15.20;99.90;;;;;;4984405;28;20039;-66
2022/08/27 02:42:02;;;;;;;7.28;3.45;;;15.20;99.90;;;;;;4987580;28;20042;-64
2022/08/27 02:44:27;;;;;;;8.25;3.60;;;15.20;99.90;;;;;;4990445;28;20049;-64
2022/08/27 02:46:53;;;;;;;7.88;3.67;;;15.10;99.90;;;;;;4988348;28;20596;-65
2022/08/27 02:49:19;;;;;;;8.00;3.55;;;15.10;99.90;;;;;;4990719;28;20049;-65
2022/08/27 02:51:44;;;;;;;5.15;3.42;;;15.10;99.90;;;;;;4980313;28;20031;-65
2022/08/27 02:54:10;;;;;;;6.53;3.50;;;15.20;99.90;;;;;;4989682;28;20129;-64
2022/08/27 02:56:37;;;;;;;8.50;3.50;;;15.10;99.90;;;;;;4988183;28;20041;-65
2022/08/27 02:59:03;;;;;;;7.20;3.70;;;15.20;99.90;;;;;;4986593;28;20465;-64
2022/08/27 03:01:29;;;;;;;6.65;3.70;;;15.10;99.90;;;;;;5048873;28;20437;-65
2022/08/27 03:03:56;;;;;;;6.90;3.63;;;15.10;99.90;;;;;;4988080;28;20042;-64
2022/08/27 03:06:21;;;;;;;8.23;3.50;;;15.10;99.90;;;;;;4974031;28;20619;-65
2022/08/27 03:08:47;;;;;;;6.78;3.30;;;15.00;99.90;;;;;;4972417;28;20129;-65
2022/08/27 03:11:13;;;;;;;7.70;3.40;;;15.00;99.90;;;;;;4986233;28;20408;-64
2022/08/27 03:13:39;;;;;;;6.32;3.95;;;15.00;99.90;;;;;;4971587;28;20099;-64
2022/08/27 03:16:05;;;;;;;6.50;3.40;;;15.00;99.90;;;;;;4986162;28;20069;-64
2022/08/27 03:18:31;;;;;;;6.55;3.60;;;15.00;99.90;;;;;;4987911;28;20057;-65
2022/08/27 03:20:59;;;;;;;9.05;3.70;;;15.00;99.90;;;;;;5057342;28;20034;-65
2022/08/27 03:23:31;;;;;;;7.63;3.90;;;15.00;99.90;;;;;;4983687;28;20075;-64
2022/08/27 03:25:58;;;;;;;;;;;15.00;99.90;;;;;;4983537;28;20058;-65
2022/08/27 03:28:27;;;;;;;6.70;3.35;;;15.00;99.90;;;;;;4988478;28;19918;-64
2022/08/27 03:31:00;;;;;;;5.35;3.30;;;15.00;99.90;;;;;;4984912;28;20038;-65
2022/08/27 03:33:34;;;;;;;8.88;4.15;;;15.00;99.90;;;;;;4979600;28;20042;-66
2022/08/27 03:35:59;;;;;;;6.20;3.45;;;15.00;99.90;;;;;;4985958;28;20412;-65
2022/08/27 03:38:26;;;;;;;7.78;3.67;;;15.00;99.90;;;;;;4989188;28;20037;-65
2022/08/27 03:40:52;;;;;;;7.10;4.10;;;14.90;99.90;;;;;;4987180;28;20164;-64
2022/08/27 03:43:19;;;;;;;7.60;3.83;;;14.90;99.90;;;;;;4982345;28;20125;-64
2022/08/27 03:45:46;;;;;;;6.85;3.65;;;14.90;99.90;;;;;;4978874;28;20053;-64
2022/08/27 03:48:12;;;;;;;8.73;3.83;;;14.90;99.90;;;;;;4986714;28;20058;-64
2022/08/27 03:50:40;;;;;;;6.38;3.70;;;14.90;99.90;;;;;;4985294;28;20042;-66
2022/08/27 03:53:07;;;;;;;7.57;3.60;;;14.90;99.90;;;;;;4982600;28;20542;-66
2022/08/27 03:55:32;;;;;;;7.45;3.45;;;14.90;99.90;;;;;;4988225;28;20051;-65
2022/08/27 03:57:58;;;;;;;7.53;3.60;;;14.90;99.90;;;;;;4988243;28;20038;-64
2022/08/27 04:00:24;;;;;;;7.15;4.03;;;14.90;99.90;;;;;;4987645;28;20078;-65
2022/08/27 04:02:50;;;;;;;5.88;3.33;;;14.80;99.90;;;;;;4979582;28;20039;-64
2022/08/27 04:05:16;;;;;;;7.38;3.50;;;14.80;99.90;;;;;;4989507;28;20095;-65
2022/08/27 04:07:42;;;;;;;7.57;3.75;;;14.80;99.90;;;;;;4981660;28;20396;-64
2022/08/27 04:10:10;;;;;;;8.45;3.72;;;14.80;99.90;;;;;;5005983;28;20066;-64
2022/08/27 04:12:37;;;;;;;7.10;3.42;;;14.80;99.90;;;;;;4998071;28;20519;-64
2022/08/27 04:15:03;;;;;;;7.10;3.70;;;14.70;99.90;;;;;;4979581;28;20042;-65
2022/08/27 04:17:30;;;;;;;7.13;3.40;;;14.70;99.90;;;;;;4986329;28;20095;-65
2022/08/27 04:19:55;;;;;;;8.15;3.83;;;14.70;99.90;;;;;;4988441;28;20114;-64
2022/08/27 04:22:22;;;;;;;7.32;3.85;;;14.70;99.90;;;;;;4981477;28;20121;-65
2022/08/27 04:24:48;;;;;;;5.57;3.28;;;14.70;99.90;;;;;;4970232;28;20050;-65
2022/08/27 04:27:15;;;;;;;6.47;3.53;;;14.70;99.90;;;;;;4984573;28;20042;-65
2022/08/27 04:29:41;;;;;;;7.90;3.72;;;14.70;99.90;;;;;;4997802;28;20042;-64
2022/08/27 04:32:07;;;;;;;6.43;3.58;;;14.70;99.90;;;;;;5003531;28;20031;-64
2022/08/27 04:34:33;;;;;;;6.38;3.83;;;14.70;99.90;;;;;;4987998;28;20050;-64
2022/08/27 04:36:59;;;;;;;7.40;4.05;;;14.70;99.90;;;;;;5006024;28;20092;-65
2022/08/27 04:39:28;;;;;;;7.25;3.90;;;14.70;99.90;;;;;;5040681;28;20498;-64
2022/08/27 04:41:57;;;;;;;6.97;3.72;;;14.60;99.90;;;;;;4998893;28;20073;-64
2022/08/27 04:44:25;;;;;;;6.53;4.28;;;14.60;99.90;;;;;;5024213;28;20111;-64
2022/08/27 04:46:55;;;;;;;7.72;3.72;;;14.60;99.90;;;;;;4985900;28;20030;-64
2022/08/27 04:49:20;;;;;;;8.15;3.70;;;14.60;99.90;;;;;;4996357;28;20102;-65
2022/08/27 04:51:46;;;;;;;6.10;3.40;;;14.60;99.90;;;;;;4987113;28;20081;-65
2022/08/27 04:54:12;;;;;;;10.52;4.05;;;14.60;99.90;;;;;;4982652;28;20561;-65
2022/08/27 04:56:38;;;;;;;6.82;4.15;;;14.60;99.90;;;;;;4983034;28;20054;-64
2022/08/27 04:59:05;;;;;;;6.93;3.78;;;14.60;99.90;;;;;;4985848;28;20057;-65
2022/08/27 05:01:31;;;;;;;8.23;4.10;;;14.70;99.90;;;;;;5004767;28;20038;-64
2022/08/27 05:03:57;;;;;;;7.82;3.90;;;14.70;99.90;;;;;;4992665;28;20115;-64
2022/08/27 05:06:24;;;;;;;7.30;3.60;;;14.70;99.90;;;;;;4980114;28;20059;-65
2022/08/27 05:08:52;;;;;;;6.63;3.92;;;14.70;99.90;;;;;;4995587;28;20049;-65
2022/08/27 05:11:19;;;;;;;7.90;4.15;;;14.80;99.90;;;;;;4986334;28;20042;-65
2022/08/27 05:13:46;;;;;;;6.88;3.90;;;14.80;99.90;;;;;;4981351;28;20046;-64
2022/08/27 05:16:18;;;;;;;6.70;3.65;;;14.80;99.90;;;;;;4981601;28;20039;-64
2022/08/27 05:18:45;;;;;;;6.88;3.80;;;14.90;99.90;;;;;;4976565;28;20130;-65
2022/08/27 05:21:20;;;;;;;6.05;3.90;;;14.90;99.90;;;;;;5030472;28;20030;-64
2022/08/27 05:23:46;;;;;;;7.22;3.88;;;15.00;99.90;;;;;;4985113;28;20074;-64
2022/08/27 05:26:12;;;;;;;7.38;3.60;;;15.00;99.90;;;;;;4985219;28;20373;-64
2022/08/27 05:28:38;;;;;;;7.85;3.70;;;14.90;99.90;;;;;;5019170;28;20035;-64
2022/08/27 05:31:07;;;;;;;9.10;4.03;;;15.00;99.90;;;;;;4990644;28;20118;-64
2022/08/27 05:33:33;;;;;;;7.18;3.75;;;15.00;99.90;;;;;;5040188;23;20043;-83
2022/08/27 05:36:01;;;;;;;6.43;3.50;;;15.10;99.90;;;;;;5080905;28;20044;-82
2022/08/27 05:38:29;;;;;;;5.60;3.50;;;15.00;99.90;;;;;;5072604;28;20124;-81
2022/08/27 05:41:07;;;;;;;8.18;3.10;;;15.20;99.90;;;;;;5076647;28;20453;-80
2022/08/27 05:43:36;;;;;;;7.25;3.10;;;15.10;99.90;;;;;;5044522;28;20107;-79
2022/08/27 05:46:07;;;;;;;6.32;3.40;;;15.30;99.90;;;;;;5051411;28;20667;-80
2022/08/27 05:48:36;;;;;;;6.90;3.85;;;15.20;99.90;;;;;;5056015;28;20493;-80
2022/08/27 05:51:23;;;;;;;7.60;4.07;;;15.20;99.90;;;;;;5051723;28;20392;-80
2022/08/27 05:54:00;;;;;;;6.80;3.50;;;15.70;99.90;;;;;;5049022;28;20109;-80
2022/08/27 05:56:28;;;;;;;8.02;3.70;;;15.30;99.90;;;;;;5054408;28;20485;-80
2022/08/27 06:01:45;;;;;;;6.55;3.78;;;15.40;99.90;;;;;;5053938;28;20116;-79
2022/08/27 06:04:14;;;;;;;6.00;3.67;;;15.60;99.90;;;;;;5055765;28;20045;-80
2022/08/27 06:06:42;;;;;;;7.30;3.58;;;15.30;99.90;;;;;;5033880;28;20040;-80
2022/08/27 06:09:11;;;;;;;7.20;3.33;;;15.40;99.90;;;;;;5038162;28;20047;-80
2022/08/27 06:11:39;;;;;;;6.20;3.50;;;15.20;99.90;;;;;;5043428;28;20124;-80
2022/08/27 06:14:09;;;;;;;8.88;3.88;;;15.20;99.90;;;;;;5053895;28;20045;-80
2022/08/27 06:16:36;;;;;;;7.40;3.35;;;15.20;99.90;;;;;;5055184;28;20032;-79
2022/08/27 06:19:04;;;;;;;8.63;4.13;;;15.20;99.90;;;;;;5037834;28;20036;-80
2022/08/27 06:21:29;;;;;;;7.25;3.45;;;15.30;99.90;;;;;;5053272;28;20481;-80
2022/08/27 06:23:55;;;;;;;6.25;3.42;;;15.30;99.90;;;;;;5059047;28;20054;-80
2022/08/27 06:26:23;;;;;;;7.80;3.58;;;15.30;99.90;;;;;;5042463;28;20119;-79
2022/08/27 06:28:50;;;;;;;7.82;3.75;;;15.30;99.90;;;;;;5044803;28;20052;-79
2022/08/27 06:31:18;;;;;;;7.03;3.90;;;15.30;99.90;;;;;;5057689;28;20037;-79
2022/08/27 06:33:45;;;;;;;7.22;3.55;;;15.30;99.90;;;;;;5056859;28;20048;-79
2022/08/27 06:36:14;;;;;;;7.20;3.33;;;15.40;99.90;;;;;;5059354;28;20039;-79
2022/08/27 06:38:41;;;;;;;8.25;3.90;;;15.40;99.90;;;;;;5054606;28;20041;-80
2022/08/27 06:41:09;;;;;;;7.43;3.47;;;15.40;99.90;;;;;;5062087;28;20463;-80
2022/08/27 06:43:37;;;;;;;6.70;3.30;;;15.60;99.90;;;;;;5043974;28;20104;-80
2022/08/27 06:46:04;;;;;;;5.68;3.00;;;15.50;99.90;;;;;;5035022;28;20037;-75
2022/08/27 06:48:30;;;;;;;9.93;3.40;;;15.60;99.90;;;;;;5033536;28;20053;-81
2022/08/27 06:50:56;;;;;;;7.80;3.40;;;15.60;99.90;;;;;;5042798;28;20040;-80
2022/08/27 06:53:22;;;;;;;6.93;3.25;;;15.60;99.90;;;;;;5035150;28;20037;-80
2022/08/27 06:55:49;;;;;;;5.10;3.20;;;15.60;99.90;;;;;;5040746;28;20045;-80
2022/08/27 06:58:16;;;;;;;9.18;3.13;;;15.70;99.90;;;;;;5039107;28;20033;-78
2022/08/27 07:00:43;;;;;;;7.22;3.40;;;15.80;99.90;;;;;;5049990;28;20048;-81
2022/08/27 07:03:09;;;;;;;6.68;3.13;;;15.80;99.90;;;;;;5037457;28;20041;-81
2022/08/27 07:05:38;;;;;;;6.63;2.92;;;15.80;99.90;;;;;;5052325;28;20049;-80
2022/08/27 07:08:06;;;;;;;6.75;3.13;;;15.80;99.90;;;;;;5050282;28;20037;-78
2022/08/27 07:10:36;;;;;;;5.53;2.70;;;16.30;99.90;;;;;;5059012;28;20085;-80
2022/08/27 07:13:02;;;;;;;6.53;2.63;;;16.00;99.90;;;;;;5062038;28;20033;-80
2022/08/27 07:15:28;;;;;;;6.95;2.60;;;16.10;99.90;;;;;;5041997;28;20049;-80
2022/08/27 07:17:54;;;;;;;8.07;3.00;;;16.30;99.90;;;;;;5047996;28;20035;-81
2022/08/27 07:20:20;;;;;;;5.68;2.70;;;16.20;99.90;;;;;;5066168;28;20064;-80
2022/08/27 07:22:46;;;;;;;4.75;2.20;;;16.30;99.90;;;;;;5059076;28;20732;-80
2022/08/27 07:25:18;;;;;;;6.95;2.28;;;16.60;99.90;;;;;;5049836;28;20067;-79
2022/08/27 07:27:48;;;;;;;4.93;2.20;;;16.40;99.90;;;;;;5054008;28;20396;-80
2022/08/27 07:30:16;;;;;;;5.10;1.98;;;16.50;99.90;;;;;;5054883;28;20191;-80
2022/08/27 07:33:03;;;;;;;6.72;2.13;;;16.50;99.90;;;;;;5047147;28;20037;-80
2022/08/27 07:35:51;;;;;;;6.05;2.28;;;16.60;99.90;;;;;;5036550;28;20048;-82
2022/08/27 07:38:17;;;;;;;5.65;2.38;;;16.70;99.90;;;;;;5033979;28;20040;-81
2022/08/27 07:40:45;;;;;;;4.78;1.70;;;16.70;99.90;;;;;;5027618;28;20033;-81
2022/08/27 07:45:56;;;;;;;6.53;1.63;;;17.00;99.90;;;;;;5052818;28;20045;-80
2022/08/27 07:48:23;;;;;;;7.57;1.92;;;17.20;99.90;;;;;;5041898;28;20028;-80
2022/08/27 07:50:51;;;;;;;6.07;1.88;;;17.30;99.90;;;;;;5058983;28;20041;-81
2022/08/27 07:53:18;;;;;;;5.00;1.80;;;17.70;99.90;;;;;;5065666;28;20042;-81
2022/08/27 07:55:44;;;;;;;5.57;1.92;;;17.30;99.90;;;;;;5054370;28;20080;-80
2022/08/27 07:58:10;;;;;;;8.57;1.80;;;17.50;99.90;;;;;;5057129;28;20036;-80
2022/08/27 08:00:36;;;;;;;5.78;1.70;;;17.50;99.90;;;;;;5054510;28;20366;-80
2022/08/27 08:03:03;;;;;;;5.38;1.73;;;17.50;99.90;;;;;;5048934;28;20044;-81
2022/08/27 08:05:29;;;;;;;5.80;1.88;;;17.50;99.90;;;;;;5045141;28;20045;-81
2022/08/27 08:07:56;;;;;;;4.57;1.60;;;17.70;99.90;;;;;;5045202;28;20501;-81
2022/08/27 08:10:22;;;;;;;4.90;2.08;;;17.70;99.90;;;;;;5050610;28;20063;-80
2022/08/27 08:12:50;;;;;;;7.65;2.03;;;17.70;99.90;;;;;;5033463;28;20045;-79
2022/08/27 08:15:18;;;;;;;5.20;1.60;;;17.90;99.90;;;;;;5033727;28;20044;-80
2022/08/27 08:17:44;;;;;;;5.45;1.70;;;17.80;99.90;;;;;;5045479;28;20116;-80
2022/08/27 08:20:11;;;;;;;5.38;1.70;;;17.90;99.90;;;;;;5042579;28;20404;-80
2022/08/27 08:22:37;;;;;;;5.07;1.40;;;17.90;99.90;;;;;;5061156;28;20053;-80
2022/08/27 08:25:04;;;;;;;4.72;1.60;;;18.10;99.90;;;;;;5046856;28;20493;-81
2022/08/27 08:27:31;;;;;;;4.20;1.42;;;18.10;99.90;;;;;;5039572;28;20048;-79
2022/08/27 08:30:01;;;;;;;5.60;1.60;;;18.20;99.90;;;;;;5034391;28;20033;-80
2022/08/27 08:32:26;;;;;;;5.25;2.70;;;18.20;99.90;;;;;;5056218;28;20033;-81
2022/08/27 08:34:52;;;;;;;6.00;1.88;;;18.30;99.90;;;;;;5039970;28;20084;-81
2022/08/27 08:37:18;;;;;;;5.40;1.95;;;18.50;99.90;;;;;;5045130;28;20033;-81
2022/08/27 08:39:44;;;;;;;5.35;1.73;;;18.60;99.90;;;;;;5051439;28;20032;-81
2022/08/27 08:42:29;;;;;;;5.82;1.70;;;19.00;99.90;;;;;;5028959;28;20044;-80
2022/08/27 08:44:56;;;;;;;5.45;1.67;;;18.90;99.90;;;;;;5041821;28;20045;-80
2022/08/27 08:47:55;;;;;;;5.20;1.70;;;19.00;99.90;;;;;;5043639;28;20033;-80
2022/08/27 08:50:34;;;;;;;4.65;1.80;;;19.10;99.90;;;;;;5030408;28;20521;-80
2022/08/27 08:53:33;;;;;;;6.27;2.00;;;19.20;99.90;;;;;;5053662;28;20028;-80
2022/08/27 08:56:03;;;;;;;5.78;1.65;;;19.30;99.90;;;;;;5031389;28;20284;-81
2022/08/27 08:58:54;;;;;;;6.35;1.80;;;19.40;99.90;;;;;;5063538;28;20097;-81
2022/08/27 09:01:21;;;;;;;7.53;1.77;;;19.60;99.90;;;;;;5037452;28;20584;-82
2022/08/27 09:03:57;;;;;;;4.72;1.60;;;19.60;99.90;;;;;;5053678;28;20060;-77
2022/08/27 09:06:51;;;;;;;5.18;1.48;;;19.70;99.90;;;;;;5036643;28;20041;-79
2022/08/27 09:09:51;;;;;;;12.30;3.03;;;19.90;99.90;;;;;;5040500;28;20216;-79
2022/08/27 09:12:25;;;;;;;11.48;2.00;;;20.30;99.90;;;;;;5036177;28;20045;-79
2022/08/27 09:15:16;;;;;;;9.93;2.30;;;20.60;99.90;;;;;;5048487;28;20052;-79
2022/08/27 09:17:42;;;;;;;8.40;1.80;;;20.80;99.90;;;;;;5052641;28;20032;-76
2022/08/27 09:20:09;;;;;;;8.15;1.90;;;20.90;99.90;;;;;;5045395;28;20075;-80
2022/08/27 09:22:59;;;;;;;5.57;1.67;;;21.00;99.90;;;;;;5045468;28;20044;-77
2022/08/27 09:25:33;;;;;;;7.20;1.80;;;21.30;99.90;;;;;;5052643;28;20378;-77
2022/08/27 09:28:04;;;;;;;7.18;1.60;;;21.70;99.90;;;;;;5049960;28;20130;-78
2022/08/27 09:30:39;;;;;;;4.30;1.83;;;22.00;99.90;;;;;;5052150;28;20045;-79
2022/08/27 09:33:05;;;;;;;6.43;1.58;;;22.20;99.90;;;;;;5050502;28;20060;-77
2022/08/27 09:35:51;;;;;;;4.90;1.65;;;22.50;99.90;;;;;;5052764;28;20048;-78
2022/08/27 09:38:35;;;;;;;4.70;1.50;;;22.80;97.90;;;;;;5031815;28;20037;-78
2022/08/27 09:41:23;;;;;;;4.65;1.90;;;22.80;96.80;;;;;;5037589;28;20038;-78
2022/08/27 09:44:01;;;;;;;4.50;1.55;;;22.80;95.90;;;;;;5069646;28;20037;-78
2022/08/27 09:46:27;;;;;;;5.15;2.00;;;22.80;96.70;;;;;;5054217;28;20108;-78
2022/08/27 09:48:56;;;;;;;6.25;1.42;;;22.70;97.30;;;;;;5055294;28;20036;-78
2022/08/27 09:51:27;;;;;;;4.72;1.65;;;22.80;97.20;;;;;;5064534;28;20041;-78
2022/08/27 09:53:56;;;;;;;3.47;1.40;;;22.80;97.00;;;;;;5043713;28;20046;-78
2022/08/27 09:56:36;;;;;;;6.15;1.60;;;22.80;97.20;;;;;;5033326;28;20459;-78
2022/08/27 09:59:08;;;;;;;4.10;1.50;;;22.80;97.30;;;;;;5054817;28;20047;-79
2022/08/27 10:01:50;;;;;;;7.18;1.95;;;22.70;96.80;;;;;;5051337;28;20053;-78
2022/08/27 10:04:23;;;;;;;5.40;1.58;;;22.50;96.60;;;;;;5054541;28;20078;-78
2022/08/27 10:06:50;;;;;;;5.22;1.73;;;22.30;96.60;;;;;;5049607;28;20065;-78
2022/08/27 10:09:28;;;;;;;4.78;1.83;;;22.20;97.10;;;;;;5052634;28;20034;-78
2022/08/27 10:12:17;;;;;;;6.32;1.55;;;22.00;97.20;;;;;;5047523;28;20033;-78
2022/08/27 10:14:50;;;;;;;6.50;1.60;;;21.90;97.50;;;;;;5026916;28;20056;-78
2022/08/27 10:17:58;;;;;;;4.72;1.33;;;21.80;97.60;;;;;;5047134;28;20040;-78
2022/08/27 10:20:39;;;;;;;3.85;1.63;;;21.80;97.30;;;;;;5043045;28;20626;-78
2022/08/27 10:23:35;;;;;;;6.93;1.80;;;21.70;97.50;;;;;;5033934;28;20138;-78
2022/08/27 10:26:18;;;;;;;3.65;1.40;;;21.70;97.70;;;;;;5047373;28;20045;-78
2022/08/27 10:29:04;;;;;;;5.53;1.90;;;21.80;97.20;;;;;;5035749;28;20045;-78
2022/08/27 10:32:04;;;;;;;4.93;1.60;;;21.70;97.20;;;;;;5054516;28;20045;-78
2022/08/27 10:35:03;;;;;;;5.93;1.65;;;21.70;96.70;;;;;;5038197;28;20064;-78
2022/08/27 10:37:34;;;;;;;3.92;1.33;;;21.70;97.20;;;;;;5051104;28;20045;-78
2022/08/27 10:40:11;;;;;;;5.00;1.63;;;21.60;97.20;;;;;;5046013;28;20095;-79
2022/08/27 10:42:54;;;;;;;6.15;1.75;;;21.60;96.90;;;;;;5045261;28;20041;-78
2022/08/27 10:45:41;;;;;;;8.45;1.75;;;21.50;96.90;;;;;;5058705;28;20037;-78
2022/08/27 10:48:40;;;;;;;3.28;1.40;;;21.50;96.90;;;;;;5058021;28;20044;-78
2022/08/27 10:51:24;;;;;;;7.78;1.90;;;21.50;96.90;;;;;;5050009;28;20059;-77
2022/08/27 10:54:24;;;;;;;4.07;1.40;;;21.50;97.10;;;;;;5072888;28;20516;-78
2022/08/27 10:57:26;;;;;;;4.88;1.45;;;21.60;97.10;;;;;;5050112;28;20508;-78
2022/08/27 11:00:20;;;;;;;3.40;1.27;;;21.60;96.70;;;;;;4964056;28;20062;-78
2022/08/27 11:03:04;;;;;;;6.80;1.60;;;21.60;96.90;;;;;;5047237;28;20137;-78
2022/08/27 11:05:35;;;;;;;6.07;1.92;;;21.60;96.70;;;;;;5039820;28;20057;-78
2022/08/27 11:08:12;;;;;;;3.67;1.50;;;21.50;96.90;;;;;;5045019;28;20570;-78
2022/08/27 11:10:48;;;;;;;6.07;1.52;;;21.50;96.90;;;;;;5039637;28;20049;-78
2022/08/27 11:13:44;;;;;;;5.20;1.73;;;21.50;96.90;;;;;;5039439;28;20578;-78
2022/08/27 11:16:24;;;;;;;5.85;1.60;;;21.50;96.90;;;;;;5071039;28;20115;-78
2022/08/27 11:18:57;;;;;;;4.55;1.30;;;21.60;96.70;;;;;;5036278;28;20051;-78
2022/08/27 11:21:40;;;;;;;5.28;1.38;;;21.50;96.70;;;;;;5044512;28;20505;-78
2022/08/27 11:24:08;;;;;;;6.10;1.85;;;21.50;96.40;;;;;;5055523;28;20480;-78
2022/08/27 11:26:37;;;;;;;8.00;1.85;;;21.60;96.60;;;;;;5059500;28;20044;-78
2022/08/27 11:29:30;;;;;;;9.48;1.70;;;21.60;96.40;;;;;;5062816;28;20104;-78
2022/08/27 11:32:12;;;;;;;6.30;1.58;;;21.60;95.90;;;;;;5041975;28;20068;-78
2022/08/27 11:34:55;;;;;;;4.72;1.30;;;21.70;95.70;;;;;;5086810;22;20188;-79
2022/08/27 11:37:23;;;;;;;7.22;1.70;;;21.70;95.70;;;;;;5067708;28;20068;-80
2022/08/27 11:40:05;;;;;;;4.65;1.33;;;21.80;96.00;;;;;;5071326;28;20032;-79
2022/08/27 11:42:50;;;;;;;3.75;1.35;;;21.90;95.70;;;;;;5071259;28;20036;-79
2022/08/27 11:45:29;;;;;;;5.03;1.58;;;21.90;95.20;;;;;;5051307;28;20048;-80
2022/08/27 11:48:01;;;;;;;4.80;1.65;;;22.00;95.50;;;;;;5047869;28;20532;-80
2022/08/27 11:50:29;;;;;;;6.07;1.75;;;22.10;95.30;;;;;;5048287;28;20037;-80
2022/08/27 11:53:03;;;;;;;4.85;1.42;;;22.10;95.20;;;;;;5049943;28;20515;-80
2022/08/27 11:55:37;;;;;;;6.70;2.05;;;22.20;95.00;;;;;;5055658;28;20040;-80
2022/08/27 11:58:19;;;;;;;4.32;1.45;;;22.30;95.00;;;;;;5034930;28;20163;-79
2022/08/27 12:00:45;;;;;;;4.20;1.60;;;22.50;94.80;;;;;;5048808;28;20048;-79
2022/08/27 12:03:20;;;;;;;5.75;1.60;;;22.50;94.60;;;;;;5047678;28;20041;-80
2022/08/27 12:06:09;;;;;;;5.47;1.40;;;22.60;94.00;;;;;;5050684;28;20072;-80
2022/08/27 12:08:35;;;;;;;4.95;1.63;;;22.70;94.00;;;;;;5052624;28;20056;-79
2022/08/27 12:11:13;;;;;;;5.60;1.70;;;22.90;94.30;;;;;;5051148;28;20041;-78
2022/08/27 12:14:10;;;;;;;4.93;1.50;;;23.10;93.80;;;;;;5049788;28;20095;-77
2022/08/27 12:16:44;;;;;;;6.38;1.60;;;23.10;92.50;;;;;;5049774;28;20044;-78
2022/08/27 12:19:22;;;;;;;;;;;23.10;92.90;;;;;;5049027;28;20124;-78
2022/08/27 12:22:12;;;;;;;2.78;1.40;;;23.10;91.90;;;;;;5052943;28;19975;-79
2022/08/27 12:24:50;;;;;;;6.00;1.63;;;23.00;91.70;;;;;;5053369;28;20132;-79
2022/08/27 12:27:30;;;;;;;4.72;1.58;;;23.00;92.30;;;;;;5052425;28;20044;-79
2022/08/27 12:29:58;;;;;;;6.22;1.70;;;22.90;92.10;;;;;;5054556;28;20040;-79
2022/08/27 12:32:40;;;;;;;4.10;1.30;;;22.90;92.40;;;;;;5054758;28;20630;-80
2022/08/27 12:35:26;;;;;;;4.47;1.30;;;22.90;92.40;;;;;;5050256;28;20037;-77
2022/08/27 12:38:15;;;;;;;5.43;1.40;;;22.90;92.20;;;;;;5042493;28;20045;-80
2022/08/27 12:40:52;;;;;;;6.35;1.60;;;23.00;92.00;;;;;;5068991;28;20071;-80
2022/08/27 12:43:21;;;;;;;4.68;1.27;;;23.10;92.70;;;;;;5051509;28;20047;-79
2022/08/27 12:46:05;;;;;;;4.25;1.50;;;23.30;92.50;;;;;;5052033;28;20091;-77
2022/08/27 12:48:36;;;;;;;5.47;1.83;;;23.30;91.30;;;;;;5058536;28;20059;-80
2022/08/27 12:51:07;;;;;;;2.28;1.17;;;23.20;91.30;;;;;;5071558;28;20111;-79
2022/08/27 12:54:06;;;;;;;4.95;1.40;;;23.10;91.10;;;;;;5051052;28;20556;-77
2022/08/27 12:56:59;;;;;;;4.82;1.58;;;23.00;90.40;;;;;;5048471;28;20033;-77
2022/08/27 12:59:43;;;;;;;5.30;1.60;;;22.90;90.60;;;;;;5035517;28;20084;-78
2022/08/27 13:02:27;;;;;;;4.80;1.58;;;22.90;90.90;;;;;;5047504;28;20072;-78
2022/08/27 13:04:53;;;;;;;6.10;1.50;;;22.80;90.50;;;;;;5042670;28;20084;-78
2022/08/27 13:07:31;;;;;;;5.75;1.40;;;22.80;90.90;;;;;;5058712;28;20575;-78
2022/08/27 13:10:12;;;;;;;4.70;1.30;;;22.70;90.80;;;;;;5057720;28;20092;-78
2022/08/27 13:12:39;;;;;;;4.25;1.40;;;22.60;91.20;;;;;;5064550;28;20080;-78
2022/08/27 13:15:09;;;;;;;5.40;1.70;;;22.50;91.30;;;;;;5049738;28;20076;-78
2022/08/27 13:17:40;;;;;;;4.93;1.40;;;22.40;91.20;;;;;;5048083;28;20102;-78